createdAt,value
2018-12-31T00:02:59.444Z,26.97
2018-12-31T00:08:01.196Z,22.20
2018-12-31T00:13:03.294Z,20.00
2018-12-31T00:18:07.744Z,24.30
2018-12-31T00:23:09.804Z,11.73
2018-12-31T00:28:11.480Z,15.57
2018-12-31T00:33:13.235Z,19.00
2018-12-31T00:38:15.318Z,9.07
2018-12-31T00:43:17.087Z,11.97
2018-12-31T00:48:18.987Z,9.67
2018-12-31T00:53:21.080Z,13.27
2018-12-31T00:58:22.866Z,12.87
2018-12-31T01:03:24.651Z,8.47
2018-12-31T01:08:26.904Z,13.40
2018-12-31T01:13:28.655Z,6.90
2018-12-31T01:18:31.675Z,4.80
2018-12-31T01:23:33.453Z,33.97
2018-12-31T01:28:35.142Z,14.30
2018-12-31T01:33:37.206Z,27.87
2018-12-31T01:38:38.949Z,24.90
2018-12-31T01:43:41.143Z,36.23
2018-12-31T01:48:43.005Z,152.17
2018-12-31T01:53:44.759Z,39.90
2018-12-31T01:58:46.678Z,80.77
2018-12-31T02:03:48.897Z,43.87
2018-12-31T02:08:50.763Z,23.23
2018-12-31T02:13:52.525Z,18.30
2018-12-31T02:18:54.812Z,59.20
2018-12-31T02:23:57.121Z,20.13
2018-12-31T02:28:59.811Z,35.07
2018-12-31T02:34:01.584Z,47.43
2018-12-31T02:39:05.247Z,16.97
2018-12-31T02:44:07.347Z,25.07
2018-12-31T02:49:09.097Z,48.17
2018-12-31T02:54:11.059Z,18.03
2018-12-31T02:59:12.857Z,20.03
2018-12-31T03:04:14.698Z,16.10
2018-12-31T03:09:16.521Z,9.53
2018-12-31T03:14:18.907Z,30.87
2018-12-31T03:19:20.578Z,14.97
2018-12-31T03:24:23.459Z,8.50
2018-12-31T03:29:25.127Z,13.87
2018-12-31T03:34:26.944Z,16.10
2018-12-31T03:39:28.783Z,12.30
2018-12-31T03:44:30.372Z,17.57
2018-12-31T03:49:32.397Z,21.93
2018-12-31T03:54:34.547Z,17.83
2018-12-31T03:59:36.669Z,12.93
2018-12-31T04:04:38.323Z,21.90
2018-12-31T04:09:40.260Z,15.13
2018-12-31T04:14:42.536Z,16.50
2018-12-31T04:19:44.515Z,17.07
2018-12-31T04:24:46.600Z,20.30
2018-12-31T04:29:48.310Z,13.17
2018-12-31T04:34:50.562Z,12.27
2018-12-31T04:39:52.512Z,20.50
2018-12-31T04:44:54.556Z,9.77
2018-12-31T04:49:56.402Z,7.97
2018-12-31T04:54:58.138Z,12.80
2018-12-31T04:59:59.892Z,6.20
2018-12-31T05:05:01.684Z,12.43
2018-12-31T05:10:03.938Z,17.73
2018-12-31T05:15:05.838Z,20.73
2018-12-31T05:20:07.783Z,13.30
2018-12-31T05:25:09.619Z,23.07
2018-12-31T05:30:11.578Z,22.80
2018-12-31T05:35:13.666Z,18.80
2018-12-31T05:40:15.424Z,11.37
2018-12-31T05:45:17.745Z,9.57
2018-12-31T05:50:19.505Z,10.33
2018-12-31T05:55:22.915Z,5.77
2018-12-31T06:00:25.121Z,7.20
2018-12-31T06:05:26.821Z,8.23
2018-12-31T06:10:28.948Z,160.27
2018-12-31T06:15:30.786Z,7.33
2018-12-31T06:20:32.548Z,38.63
2018-12-31T06:25:34.491Z,80.03
2018-12-31T06:30:36.488Z,12.63
2018-12-31T06:35:38.210Z,17.00
2018-12-31T06:40:40.211Z,36.60
2018-12-31T06:45:41.967Z,64.00
2018-12-31T06:50:43.721Z,90.37
2018-12-31T06:55:45.721Z,385.77
2018-12-31T07:00:47.709Z,336.30
2018-12-31T07:05:49.486Z,537.70
2018-12-31T07:10:51.274Z,637.53
2018-12-31T07:15:54.680Z,498.13
2018-12-31T07:20:59.360Z,564.40
2018-12-31T07:26:01.447Z,498.20
2018-12-31T07:31:03.439Z,375.70
2018-12-31T07:36:05.202Z,452.07
2018-12-31T07:41:07.518Z,882.53
2018-12-31T07:46:09.589Z,962.70
2018-12-31T07:51:12.383Z,749.70
2018-12-31T07:56:14.773Z,592.27
2018-12-31T08:01:16.536Z,287.17
2018-12-31T08:06:18.527Z,154.13
2018-12-31T08:11:20.261Z,14.93
2018-12-31T08:16:22.044Z,33.50
2018-12-31T08:21:23.696Z,12.70
2018-12-31T08:26:25.634Z,20.93
2018-12-31T08:31:27.249Z,25.00
2018-12-31T08:36:28.920Z,22.33
2018-12-31T08:41:30.574Z,17.17
2018-12-31T08:46:32.556Z,12.70
2018-12-31T08:51:34.755Z,16.43
2018-12-31T08:56:36.428Z,13.43
2018-12-31T09:01:38.158Z,13.50
2018-12-31T09:06:39.773Z,19.93
2018-12-31T09:11:41.442Z,29.30
2018-12-31T09:16:43.216Z,43.50
2018-12-31T09:21:45.169Z,48.57
2018-12-31T09:26:47.154Z,68.33
2018-12-31T09:31:48.820Z,122.87
2018-12-31T09:36:50.577Z,117.37
2018-12-31T09:41:53.414Z,198.93
2018-12-31T09:46:55.270Z,124.50
2018-12-31T09:51:56.954Z,127.00
2018-12-31T09:56:58.719Z,80.67
2018-12-31T10:02:00.473Z,86.73
2018-12-31T10:07:02.286Z,69.03
2018-12-31T10:12:04.045Z,76.27
2018-12-31T10:17:05.820Z,130.03
2018-12-31T10:22:12.063Z,102.07
2018-12-31T10:27:14.788Z,63.33
2018-12-31T10:32:16.410Z,88.87
2018-12-31T10:37:19.346Z,85.83
2018-12-31T10:42:21.384Z,84.33
2018-12-31T10:47:22.998Z,109.73
2018-12-31T10:52:24.679Z,71.27
2018-12-31T10:57:26.328Z,63.57
2018-12-31T11:02:28.273Z,70.43
2018-12-31T11:07:29.928Z,65.93
2018-12-31T11:12:31.610Z,57.57
2018-12-31T11:17:33.839Z,51.87
2018-12-31T11:22:35.570Z,45.07
2018-12-31T11:27:37.262Z,60.90
2018-12-31T11:32:39.181Z,48.53
2018-12-31T11:37:40.935Z,68.60
2018-12-31T11:42:42.695Z,58.70
2018-12-31T11:47:45.019Z,56.10
2018-12-31T11:52:46.876Z,62.43
2018-12-31T11:57:48.621Z,49.23
2018-12-31T12:02:50.377Z,60.43
2018-12-31T12:07:52.114Z,78.73
2018-12-31T12:12:54.142Z,65.17
2018-12-31T12:17:55.948Z,68.03
2018-12-31T12:22:57.676Z,52.63
2018-12-31T12:28:00.746Z,63.97
2018-12-31T12:33:02.522Z,48.20
2018-12-31T12:38:04.317Z,42.87
2018-12-31T12:43:06.479Z,50.33
2018-12-31T12:48:08.598Z,50.40
2018-12-31T12:53:10.359Z,48.43
2018-12-31T12:58:12.111Z,51.43
2018-12-31T13:03:13.891Z,31.60
2018-12-31T13:08:15.669Z,40.03
2018-12-31T13:13:17.493Z,30.93
2018-12-31T13:18:19.598Z,33.53
2018-12-31T13:23:23.299Z,26.13
2018-12-31T13:28:25.095Z,23.30
2018-12-31T13:33:27.374Z,26.27
2018-12-31T13:38:31.267Z,24.03
2018-12-31T13:43:36.771Z,29.77
2018-12-31T13:48:41.971Z,31.10
2018-12-31T13:53:43.905Z,25.93
2018-12-31T13:58:45.675Z,18.37
2018-12-31T14:03:47.438Z,35.40
2018-12-31T14:08:51.254Z,30.97
2018-12-31T14:13:53.341Z,36.53
2018-12-31T14:18:55.734Z,58.03
2018-12-31T14:23:58.828Z,37.00
2018-12-31T14:29:00.834Z,42.40
2018-12-31T14:34:03.676Z,47.23
2018-12-31T14:39:05.631Z,71.60
2018-12-31T14:44:07.412Z,77.87
2018-12-31T14:49:09.172Z,84.37
2018-12-31T14:54:11.164Z,64.83
2018-12-31T14:59:12.945Z,65.03
2018-12-31T15:04:14.686Z,55.17
2018-12-31T15:09:16.764Z,107.90
2018-12-31T15:14:18.724Z,74.60
2018-12-31T15:19:20.514Z,93.03
2018-12-31T15:24:22.165Z,92.47
2018-12-31T15:29:24.125Z,72.77
2018-12-31T15:34:25.800Z,117.27
2018-12-31T15:39:27.421Z,88.20
2018-12-31T15:44:29.353Z,102.00
2018-12-31T15:49:31.008Z,92.43
2018-12-31T15:54:36.427Z,68.10
2018-12-31T15:59:38.678Z,76.93
2018-12-31T16:04:40.359Z,172.27
2018-12-31T16:09:42.083Z,95.13
2018-12-31T16:14:43.697Z,89.70
2018-12-31T16:19:47.009Z,93.73
2018-12-31T16:24:49.070Z,171.77
2018-12-31T16:29:50.870Z,283.97
2018-12-31T16:34:52.613Z,73.57
2018-12-31T16:39:54.396Z,50.70
2018-12-31T16:44:56.380Z,37.53
2018-12-31T16:49:58.143Z,31.03
2018-12-31T16:55:02.387Z,38.00
2018-12-31T17:00:06.452Z,45.57
2018-12-31T17:05:08.128Z,48.60
2018-12-31T17:10:10.177Z,39.20
2018-12-31T17:15:12.578Z,48.40
2018-12-31T17:20:14.633Z,51.47
2018-12-31T17:25:16.295Z,40.87
2018-12-31T17:30:18.035Z,38.60
2018-12-31T17:35:19.728Z,35.90
2018-12-31T17:40:21.343Z,28.17
2018-12-31T17:45:23.589Z,34.77
2018-12-31T17:50:25.308Z,18.70
2018-12-31T17:55:26.979Z,24.37
2018-12-31T18:00:29.336Z,14.90
2018-12-31T18:05:31.262Z,24.20
2018-12-31T18:10:33.008Z,20.83
2018-12-31T18:15:36.205Z,34.67
2018-12-31T18:20:38.136Z,37.20
2018-12-31T18:25:41.214Z,33.67
2018-12-31T18:30:43.015Z,43.77
2018-12-31T18:35:44.691Z,50.83
2018-12-31T18:40:46.322Z,42.80
2018-12-31T18:45:48.982Z,64.73
2018-12-31T18:50:50.767Z,51.50
2018-12-31T18:55:52.990Z,58.03
2018-12-31T19:00:54.757Z,36.73
2018-12-31T19:05:56.521Z,31.60
2018-12-31T19:10:58.263Z,37.93
2018-12-31T19:16:02.918Z,36.90
2018-12-31T19:21:04.876Z,42.37
2018-12-31T19:26:06.520Z,46.50
2018-12-31T19:31:08.244Z,32.40
2018-12-31T19:36:10.379Z,43.80
2018-12-31T19:41:12.704Z,48.90
2018-12-31T19:46:14.465Z,41.23
2018-12-31T19:51:16.827Z,57.10
2018-12-31T19:56:18.902Z,55.80
2018-12-31T20:01:20.740Z,39.87
2018-12-31T20:06:22.492Z,30.03
2018-12-31T20:11:24.268Z,32.30
2018-12-31T20:16:26.028Z,51.00
2018-12-31T20:21:27.864Z,39.43
2018-12-31T20:26:29.521Z,48.77
2018-12-31T20:31:31.229Z,37.77
2018-12-31T20:36:32.845Z,39.33
2018-12-31T20:41:34.514Z,38.27
2018-12-31T20:46:36.193Z,39.67
2018-12-31T20:51:38.476Z,46.33
2018-12-31T20:56:40.227Z,36.07
2018-12-31T21:01:43.264Z,31.63
2018-12-31T21:06:47.001Z,43.63
2018-12-31T21:11:48.734Z,40.37
2018-12-31T21:16:50.971Z,50.43
2018-12-31T21:21:53.019Z,36.17
2018-12-31T21:26:54.668Z,41.47
2018-12-31T21:31:56.480Z,46.70
2018-12-31T21:36:58.401Z,40.67
2018-12-31T21:42:02.249Z,70.70
2018-12-31T21:47:04.542Z,28.73
2018-12-31T21:52:06.247Z,56.93
2018-12-31T21:57:07.966Z,46.33
2018-12-31T22:02:09.887Z,38.37
2018-12-31T22:07:11.626Z,29.97
2018-12-31T22:12:13.530Z,37.87
2018-12-31T22:17:15.556Z,38.00
2018-12-31T22:22:18.467Z,50.03
2018-12-31T22:27:20.125Z,49.37
2018-12-31T22:32:23.170Z,44.93
2018-12-31T22:37:25.220Z,37.17
2018-12-31T22:42:26.972Z,42.60
2018-12-31T22:47:29.010Z,38.03
2018-12-31T22:52:30.760Z,49.57
2018-12-31T22:57:33.858Z,66.10
2018-12-31T23:02:35.768Z,247.57
2018-12-31T23:07:37.389Z,178.27
2018-12-31T23:12:39.843Z,189.43
2018-12-31T23:17:43.008Z,168.77
2018-12-31T23:22:45.136Z,149.53
2018-12-31T23:27:48.066Z,505.13
2018-12-31T23:32:50.055Z,113.40
2018-12-31T23:37:51.727Z,55.70
2018-12-31T23:42:53.481Z,69.17
2018-12-31T23:47:55.241Z,79.00
2018-12-31T23:52:56.995Z,41.87
2018-12-31T23:57:58.769Z,48.80
